This is the latest recevied weather packets stored in our database for station/object DB0TGO-13. If no packets are shown the sender has not sent any weather packets the latest 10 day(s).
| Time | Temp. | Humidity | Pressure | Rain* | Wind** | Luminosity | Snow |
|---|---|---|---|---|---|---|---|
| 1777869902 | 16.11° C | 63% | 1005.5 hPa | - | - | - | - |
| 1777869003 | 16.11° C | 63% | 1005.5 hPa | - | - | - | - |
| 1777868102 | 16.67° C | 61% | 1005.8 hPa | - | - | - | - |
| 1777867202 | 16.67° C | 61% | 1005.8 hPa | - | - | - | - |
| 1777866303 | 17.22° C | 52% | 1006 hPa | - | - | - | - |
| 1777865402 | 17.22° C | 52% | 1006 hPa | - | - | - | - |
| 1777864502 | 17.78° C | 51% | 1006.1 hPa | - | - | - | - |
| 1777863604 | 17.78° C | 51% | 1006.1 hPa | - | - | - | - |
| 1777841102 | 22.22° C | 37% | 1004.7 hPa | - | - | - | - |
| 1777840203 | 22.22° C | 37% | 1004.7 hPa | - | - | - | - |
| 1777839302 | 21.67° C | 40% | 1004.4 hPa | - | - | - | - |
| 1777838402 | 21.67° C | 40% | 1004.4 hPa | - | - | - | - |
| 1777837503 | 21.11° C | 43% | 1004.3 hPa | - | - | - | - |
| 1777836602 | 21.11° C | 43% | 1004.3 hPa | - | - | - | - |
| 1777835702 | 23.89° C | 32% | 1004.1 hPa | - | - | - | - |
| 1777834802 | 23.89° C | 32% | 1004.1 hPa | - | - | - | - |
| 1777833903 | 25° C | 29% | 1004.1 hPa | - | - | - | - |
| 1777833002 | 25° C | 29% | 1004.1 hPa | - | - | - | - |
| 1777832102 | 26.11° C | 26% | 1004.1 hPa | - | - | - | - |
| 1777831202 | 26.11° C | 26% | 1004.1 hPa | - | - | - | - |
| 1777830302 | 26.67° C | 24% | 1004.2 hPa | - | - | - | - |
| 1777829402 | 26.67° C | 24% | 1004.2 hPa | - | - | - | - |
| 1777828502 | 27.22° C | 24% | 1004.3 hPa | - | - | - | - |
| 1777827602 | 27.22° C | 24% | 1004.3 hPa | - | - | - | - |
| 1777826702 | 27.22° C | 22% | 1004.4 hPa | - | - | - | - |
* Rain since midnight (hover to see other rain measurements)
** Current wind speed in m/s (hover to see current wind gust speed)